Time;durP1;ratioP1;P1;durP2;ratioP2;P2;SDS_P1;SDS_P2;PMS_P1;PMS_P2;Temp;Humidity;BMP_temperature;BMP_pressure;BME280_temperature;BME280_humidity;BME280_pressure;Samples;Min_cycle;Max_cycle;Signal;HPM_P1;HPM_P2
2023/07/03 00:02:17;;;;;;;2.22;0.45;;;;;;;15.27;70.74;99075.47;6090205;23;20060;-72
2023/07/03 00:04:45;;;;;;;1.70;0.70;;;;;;;15.24;70.79;99078.31;6090673;23;20031;-72
2023/07/03 00:07:13;;;;;;;2.05;0.60;;;;;;;15.22;70.68;99082.81;6092566;23;20444;-72
2023/07/03 00:09:40;;;;;;;7.40;0.90;;;;;;;15.18;70.78;99076.94;6093742;23;20029;-72
2023/07/03 00:12:09;;;;;;;2.35;0.80;;;;;;;15.17;70.77;99079.63;6091973;23;20022;-72
2023/07/03 00:14:36;;;;;;;3.53;0.80;;;;;;;15.11;70.36;99080.03;6092721;23;20029;-72
2023/07/03 00:17:02;;;;;;;2.50;0.85;;;;;;;15.10;70.50;99079.19;6092453;23;20038;-72
2023/07/03 00:19:32;;;;;;;6.32;1.50;;;;;;;15.10;70.68;99083.63;6091998;23;20025;-71
2023/07/03 00:22:00;;;;;;;8.00;1.35;;;;;;;15.07;70.69;99079.41;6092869;23;20050;-72
2023/07/03 00:24:28;;;;;;;4.70;0.70;;;;;;;15.04;70.69;99082.22;6093005;23;20403;-72
2023/07/03 00:26:56;;;;;;;1.85;0.60;;;;;;;15.02;70.78;99077.06;6092853;23;20391;-72
2023/07/03 00:29:23;;;;;;;3.83;0.80;;;;;;;14.98;70.98;99080.84;6090405;23;20034;-71
2023/07/03 00:31:50;;;;;;;7.45;1.33;;;;;;;14.96;71.10;99080.06;6093340;23;20019;-71
2023/07/03 00:34:18;;;;;;;3.20;1.10;;;;;;;14.95;70.71;99088.91;6092452;23;20029;-71
2023/07/03 00:36:47;;;;;;;6.97;1.40;;;;;;;14.89;70.96;99081.41;6093233;23;20026;-72
2023/07/03 00:39:14;;;;;;;6.22;0.70;;;;;;;14.91;70.94;99086.56;6092368;23;20033;-71
2023/07/03 00:41:41;;;;;;;1.80;0.50;;;;;;;14.87;70.83;99080.66;6092028;23;20105;-72
2023/07/03 00:44:11;;;;;;;7.00;0.80;;;;;;;14.86;70.87;99079.00;6092977;23;20022;-72
2023/07/03 00:46:39;;;;;;;5.85;0.70;;;;;;;14.84;70.88;99078.22;6092299;23;20057;-71
2023/07/03 00:49:07;;;;;;;3.67;1.15;;;;;;;14.78;70.93;99083.88;6093071;23;20300;-71
2023/07/03 00:51:34;;;;;;;3.17;0.68;;;;;;;14.78;70.87;99084.72;6093014;23;20022;-71
2023/07/03 00:54:02;;;;;;;8.60;0.90;;;;;;;14.77;70.86;99083.03;6091678;23;20022;-72
2023/07/03 00:56:29;;;;;;;2.30;0.77;;;;;;;14.76;71.05;99080.50;6090945;23;20022;-72
2023/07/03 00:58:56;;;;;;;5.85;1.73;;;;;;;14.74;70.87;99085.88;6093129;23;20018;-71
2023/07/03 01:01:28;;;;;;;5.22;0.95;;;;;;;14.73;70.75;99085.94;6092673;23;20026;-71
2023/07/03 01:04:03;;;;;;;3.55;0.88;;;;;;;14.70;70.98;99084.34;6091105;23;20114;-72
2023/07/03 01:06:32;;;;;;;;;;;;;;;14.69;71.00;99079.22;6092730;23;20098;-72
2023/07/03 01:09:03;;;;;;;5.78;0.70;;;;;;;14.66;70.88;99082.88;6092513;23;19921;-72
2023/07/03 01:11:30;;;;;;;7.90;0.82;;;;;;;14.63;70.96;99077.81;6091494;23;20022;-71
2023/07/03 01:14:01;;;;;;;2.78;0.65;;;;;;;14.60;71.15;99076.22;6092689;23;20022;-71
2023/07/03 01:16:30;;;;;;;6.32;1.08;;;;;;;14.59;71.07;99078.91;6090516;23;20029;-71
2023/07/03 01:18:59;;;;;;;5.25;0.70;;;;;;;14.58;71.16;99077.25;6092689;23;20026;-71
2023/07/03 01:21:32;;;;;;;2.45;1.35;;;;;;;14.58;71.27;99083.34;6092137;23;20022;-72
2023/07/03 01:24:07;;;;;;;7.85;1.15;;;;;;;14.57;71.22;99081.66;6089226;23;20071;-72
2023/07/03 01:26:37;;;;;;;1.02;0.68;;;;;;;14.55;71.09;99073.00;6093602;23;20371;-71
2023/07/03 01:29:05;;;;;;;4.35;0.75;;;;;;;14.55;71.13;99083.53;6092950;23;20023;-72
2023/07/03 01:31:35;;;;;;;2.85;0.85;;;;;;;14.53;71.22;99085.41;6094468;23;20478;-71
2023/07/03 01:34:03;;;;;;;6.38;0.68;;;;;;;14.52;71.04;99085.50;6093263;23;20054;-71
2023/07/03 01:36:31;;;;;;;3.92;1.10;;;;;;;14.52;71.20;99086.34;6091724;23;20022;-71
2023/07/03 01:39:00;;;;;;;3.25;0.73;;;;;;;14.49;71.27;99078.63;6093720;23;20023;-72
2023/07/03 01:41:29;;;;;;;2.65;0.60;;;;;;;14.48;71.42;99076.91;6093681;23;20025;-72
2023/07/03 01:43:57;;;;;;;8.68;0.70;;;;;;;14.46;71.39;99078.81;6091239;23;20023;-71
2023/07/03 01:46:25;;;;;;;2.83;0.68;;;;;;;14.46;71.45;99083.19;6091918;23;20036;-71
2023/07/03 01:48:52;;;;;;;3.33;1.00;;;;;;;14.45;71.42;99076.28;6093920;23;20019;-72
2023/07/03 01:51:26;;;;;;;2.53;0.60;;;;;;;14.43;71.41;99073.75;6091652;23;20022;-71
2023/07/03 01:54:04;;;;;;;6.07;0.82;;;;;;;14.43;71.43;99073.75;6093895;23;20022;-71
2023/07/03 01:56:35;;;;;;;6.40;1.00;;;;;;;14.42;71.42;99069.41;6091753;23;20030;-71
2023/07/03 01:59:09;;;;;;;2.75;0.80;;;;;;;14.40;71.65;99066.91;6092579;23;20033;-71
2023/07/03 02:01:43;;;;;;;3.92;0.73;;;;;;;14.39;71.65;99069.59;6091868;23;20046;-71
2023/07/03 02:04:19;;;;;;;3.63;0.75;;;;;;;14.39;71.59;99072.22;6094295;23;20024;-72
2023/07/03 02:06:48;;;;;;;4.80;1.13;;;;;;;14.38;71.66;99070.56;6093133;23;20468;-71
2023/07/03 02:09:15;;;;;;;4.90;0.88;;;;;;;14.38;71.69;99071.41;6094053;23;20022;-72
2023/07/03 02:11:45;;;;;;;4.80;0.80;;;;;;;14.37;71.72;99064.47;6093314;23;20076;-71
2023/07/03 02:14:14;;;;;;;2.25;0.82;;;;;;;14.38;71.77;99065.31;6093461;23;20097;-71
2023/07/03 02:16:41;;;;;;;1.65;0.60;;;;;;;14.31;71.70;99053.47;6093370;23;20032;-71
2023/07/03 02:19:10;;;;;;;4.57;0.82;;;;;;;14.37;71.61;99058.34;6093914;23;20022;-72
2023/07/03 02:21:39;;;;;;;2.85;0.70;;;;;;;14.35;71.72;99055.81;6092497;23;20495;-71
2023/07/03 02:24:07;;;;;;;2.83;1.45;;;;;;;14.35;71.41;99057.63;6091100;23;20026;-72
2023/07/03 02:26:35;;;;;;;2.92;0.60;;;;;;;14.33;71.53;99052.44;6092249;23;20027;-71
2023/07/03 02:29:02;;;;;;;2.03;0.70;;;;;;;14.33;71.47;99054.22;6093415;23;20452;-72
2023/07/03 02:31:30;;;;;;;2.40;0.63;;;;;;;14.32;71.56;99042.03;6090617;23;20029;-72
2023/07/03 02:33:57;;;;;;;6.60;0.73;;;;;;;14.30;71.50;99051.78;6092601;23;20117;-71
2023/07/03 02:36:29;;;;;;;2.58;0.68;;;;;;;14.28;71.53;99057.13;6091376;23;20026;-71
2023/07/03 02:38:57;;;;;;;4.78;1.00;;;;;;;14.25;71.59;99048.59;6092067;23;20081;-75
2023/07/03 02:41:24;;;;;;;3.85;0.90;;;;;;;14.25;71.66;99045.97;6091623;23;20407;-74
2023/07/03 02:43:51;;;;;;;5.40;0.70;;;;;;;14.24;71.66;99039.03;6094339;23;20101;-74
2023/07/03 02:46:17;;;;;;;3.47;0.98;;;;;;;14.22;71.63;99048.78;6091973;23;20029;-76
2023/07/03 02:48:46;;;;;;;4.88;0.70;;;;;;;14.21;71.63;99047.94;6092828;23;20030;-76
2023/07/03 02:51:13;;;;;;;4.88;0.93;;;;;;;14.19;71.62;99047.19;6090630;23;20531;-77
2023/07/03 02:53:40;;;;;;;7.28;1.23;;;;;;;14.17;71.66;99046.44;6090261;23;20025;-77
2023/07/03 02:56:07;;;;;;;3.63;0.70;;;;;;;14.17;71.66;99046.44;6093213;23;20046;-76
2023/07/03 02:58:34;;;;;;;3.05;0.82;;;;;;;14.17;71.56;99047.31;6092484;23;20097;-76
2023/07/03 03:01:02;;;;;;;5.07;1.00;;;;;;;14.16;71.60;99044.75;6092687;23;20023;-78
2023/07/03 03:03:30;;;;;;;5.00;0.70;;;;;;;14.15;71.54;99048.31;6092354;23;20022;-77
2023/07/03 03:05:58;;;;;;;7.90;1.10;;;;;;;14.13;71.61;99056.28;6093668;23;20440;-77
2023/07/03 03:08:25;;;;;;;5.53;1.02;;;;;;;14.12;71.62;99049.34;6091855;23;20475;-77
2023/07/03 03:10:53;;;;;;;8.15;0.70;;;;;;;14.09;72.03;99040.81;6093583;23;20122;-77
2023/07/03 03:13:19;;;;;;;2.22;0.82;;;;;;;14.11;71.78;99046.81;6093155;23;20024;-76
2023/07/03 03:15:46;;;;;;;3.80;1.08;;;;;;;14.10;71.60;99045.97;6090383;23;20026;-76
2023/07/03 03:18:13;;;;;;;3.65;0.50;;;;;;;14.08;71.85;99045.22;6093237;23;20066;-76
2023/07/03 03:20:40;;;;;;;5.28;0.80;;;;;;;14.05;71.84;99037.53;6092830;23;20447;-77
2023/07/03 03:23:08;;;;;;;3.88;0.60;;;;;;;14.06;71.88;99039.22;6092894;23;20110;-76
2023/07/03 03:25:35;;;;;;;4.57;0.60;;;;;;;13.97;71.75;99028.41;6092310;23;20097;-76
2023/07/03 03:28:02;;;;;;;4.40;0.70;;;;;;;14.06;71.99;99039.22;6093171;23;20026;-76
2023/07/03 03:30:30;;;;;;;4.10;0.80;;;;;;;14.05;71.66;99039.31;6092433;23;20040;-76
2023/07/03 03:32:57;;;;;;;4.05;1.20;;;;;;;14.05;71.85;99047.19;6091141;23;20019;-77
2023/07/03 03:35:24;;;;;;;1.55;0.60;;;;;;;14.03;71.89;99039.41;6091418;23;20101;-76
2023/07/03 03:37:51;;;;;;;4.22;0.75;;;;;;;14.03;71.88;99038.53;6092053;23;20048;-76
2023/07/03 03:40:19;;;;;;;2.75;0.68;;;;;;;14.01;71.94;99036.03;6092778;23;20018;-77
2023/07/03 03:42:46;;;;;;;3.13;0.60;;;;;;;14.02;72.00;99042.97;6092788;23;20022;-76
2023/07/03 03:45:13;;;;;;;4.82;0.52;;;;;;;14.01;72.20;99041.28;6092492;23;20018;-76
2023/07/03 03:47:40;;;;;;;1.65;0.60;;;;;;;14.00;72.18;99039.56;6091613;23;20022;-77
2023/07/03 03:50:08;;;;;;;4.65;0.68;;;;;;;14.00;72.21;99031.69;6092834;23;20022;-77
2023/07/03 03:52:35;;;;;;;8.65;1.40;;;;;;;14.01;72.36;99045.69;6091246;23;20085;-77
2023/07/03 03:55:02;;;;;;;1.35;0.40;;;;;;;13.98;72.56;99030.97;6092699;23;20597;-77
2023/07/03 03:57:30;;;;;;;2.17;1.25;;;;;;;14.02;72.95;99027.22;6091059;23;20050;-76
2023/07/03 03:59:57;;;;;;;15.73;0.80;;;;;;;14.04;73.19;99025.34;6090981;23;20091;-77
2023/07/03 04:02:24;;;;;;;3.67;0.60;;;;;;;13.98;73.54;99015.22;6091788;23;20359;-77
2023/07/03 04:04:51;;;;;;;3.75;1.08;;;;;;;14.07;73.53;99025.16;6092286;23;20026;-76
2023/07/03 04:07:18;;;;;;;1.30;0.70;;;;;;;14.11;73.58;99025.81;6091384;23;20561;-77
2023/07/03 04:09:45;;;;;;;4.30;0.50;;;;;;;14.13;73.70;99023.94;6092770;23;20023;-77
2023/07/03 04:12:12;;;;;;;3.47;1.02;;;;;;;14.17;73.85;99026.28;6090628;23;20019;-77
2023/07/03 04:14:42;;;;;;;3.75;0.70;;;;;;;14.23;73.96;99029.47;6091953;23;20026;-78
2023/07/03 04:17:10;;;;;;;3.45;0.65;;;;;;;14.28;74.02;99028.22;6092577;23;20065;-77
2023/07/03 04:19:36;;;;;;;3.17;0.50;;;;;;;14.33;74.17;99025.34;6093367;23;20022;-77
2023/07/03 04:22:03;;;;;;;5.75;0.50;;;;;;;14.38;74.19;99023.28;6092957;23;20018;-77
2023/07/03 04:24:30;;;;;;;3.53;0.40;;;;;;;14.43;73.91;99021.22;6093442;23;20027;-77
2023/07/03 04:26:59;;;;;;;2.42;0.40;;;;;;;14.46;73.85;99015.75;6093257;23;20344;-77
2023/07/03 04:29:26;;;;;;;1.33;0.30;;;;;;;14.52;73.45;99023.28;6091704;23;20030;-78
2023/07/03 04:31:54;;;;;;;2.15;0.30;;;;;;;14.57;73.28;99012.47;6090190;23;20290;-78
2023/07/03 04:34:21;;;;;;;2.78;0.52;;;;;;;14.61;73.10;99017.44;6090542;23;20538;-77
2023/07/03 04:36:48;;;;;;;3.05;0.30;;;;;;;14.65;73.08;99015.47;6093398;23;20026;-77
2023/07/03 04:39:15;;;;;;;6.75;0.40;;;;;;;14.70;73.02;99008.13;6093568;23;20022;-78
2023/07/03 04:41:43;;;;;;;4.32;0.68;;;;;;;14.74;73.14;99009.66;6093118;23;20023;-77
2023/07/03 04:44:12;;;;;;;2.45;0.40;;;;;;;14.78;72.99;99010.28;6093825;23;20094;-78
2023/07/03 04:46:39;;;;;;;2.05;0.40;;;;;;;14.83;73.04;99010.84;6093425;23;20078;-78
2023/07/03 04:49:08;;;;;;;4.88;0.50;;;;;;;14.86;73.27;98997.50;6093363;23;20347;-75
2023/07/03 04:51:36;;;;;;;1.45;0.40;;;;;;;14.90;73.18;99001.59;6093639;23;20414;-78
2023/07/03 04:54:04;;;;;;;3.30;0.32;;;;;;;14.93;73.02;98998.78;6090763;23;20026;-77
2023/07/03 04:56:33;;;;;;;2.40;0.40;;;;;;;15.00;72.97;99007.97;6093750;23;20026;-78
2023/07/03 04:59:00;;;;;;;2.40;0.40;;;;;;;15.03;72.78;99002.50;6094833;23;20482;-78
2023/07/03 05:01:29;;;;;;;1.50;0.30;;;;;;;15.07;72.72;99000.50;6094864;23;20422;-77
2023/07/03 05:03:57;;;;;;;1.98;0.20;;;;;;;15.10;72.64;98988.94;6096406;23;20030;-77
2023/07/03 05:06:25;;;;;;;3.72;0.30;;;;;;;15.10;72.42;98996.84;6095474;23;20026;-77
2023/07/03 05:08:53;;;;;;;3.83;0.70;;;;;;;14.89;72.38;98949.97;6095086;23;20031;-77
2023/07/03 05:11:19;;;;;;;1.13;0.30;;;;;;;15.19;72.23;98990.97;6094716;23;20376;-77
2023/07/03 05:13:46;;;;;;;1.70;0.30;;;;;;;15.24;72.08;99004.66;6094854;23;20026;-77
2023/07/03 05:16:14;;;;;;;1.02;0.40;;;;;;;15.23;71.54;98990.69;6095080;23;20125;-77
2023/07/03 05:18:41;;;;;;;1.45;0.30;;;;;;;15.30;71.16;98996.38;6091253;23;20029;-77
2023/07/03 05:21:08;;;;;;;3.75;0.20;;;;;;;15.33;71.32;99001.41;6094681;23;20022;-77
2023/07/03 05:23:36;;;;;;;1.67;0.40;;;;;;;15.34;71.45;99000.50;6095672;23;20023;-76
2023/07/03 05:26:03;;;;;;;2.92;0.30;;;;;;;15.36;71.46;98995.94;6095185;23;20028;-77
2023/07/03 05:28:31;;;;;;;2.28;0.43;;;;;;;15.40;71.58;98994.81;6095574;23;20018;-77
2023/07/03 05:30:59;;;;;;;3.30;0.40;;;;;;;15.41;71.49;98995.66;6096143;23;20482;-77
2023/07/03 05:33:27;;;;;;;0.95;0.30;;;;;;;15.44;71.11;98995.44;6094373;23;20026;-77
2023/07/03 05:35:55;;;;;;;2.85;0.40;;;;;;;15.46;71.04;98996.19;6095004;23;20032;-77
2023/07/03 05:38:22;;;;;;;1.88;0.50;;;;;;;15.47;70.93;99003.97;6094603;23;20031;-78
2023/07/03 05:40:50;;;;;;;4.82;0.65;;;;;;;15.50;70.92;99006.41;6094952;23;20470;-77
2023/07/03 05:43:17;;;;;;;1.50;0.30;;;;;;;15.51;70.94;99005.47;6094134;23;20022;-77
2023/07/03 05:45:47;;;;;;;4.82;0.70;;;;;;;15.52;70.77;99004.50;6094879;23;20026;-76
2023/07/03 05:48:14;;;;;;;2.35;0.40;;;;;;;15.53;70.82;98998.28;6093709;23;20348;-77
2023/07/03 05:50:41;;;;;;;1.75;0.30;;;;;;;15.53;70.43;99006.19;6094623;23;20022;-77
2023/07/03 05:53:09;;;;;;;3.88;0.60;;;;;;;15.53;70.79;98990.41;6090686;23;20038;-77
2023/07/03 05:55:36;;;;;;;5.68;0.30;;;;;;;15.56;70.79;99001.69;6094116;23;20025;-76
2023/07/03 05:58:05;;;;;;;2.42;0.35;;;;;;;15.56;70.75;98993.78;6092532;23;20033;-77
2023/07/03 06:00:32;;;;;;;0.85;0.47;;;;;;;15.57;70.83;98993.69;6094504;23;20019;-77
2023/07/03 06:03:02;;;;;;;3.22;0.30;;;;;;;15.55;71.02;98995.56;6089753;23;20023;-76
2023/07/03 06:05:29;;;;;;;1.80;0.30;;;;;;;15.59;70.87;98996.19;6093570;23;20384;-77
2023/07/03 06:07:55;;;;;;;2.50;0.30;;;;;;;15.61;70.90;98994.31;6090668;23;20336;-77
2023/07/03 06:10:23;;;;;;;2.92;0.40;;;;;;;15.62;70.62;98993.34;6083144;23;20025;-78
2023/07/03 06:12:50;;;;;;;3.45;0.40;;;;;;;15.63;70.87;98992.44;6093860;23;20023;-76
2023/07/03 06:15:18;;;;;;;3.33;0.40;;;;;;;15.65;70.54;98990.53;6093251;23;20234;-76
2023/07/03 06:17:45;;;;;;;4.32;0.47;;;;;;;15.66;70.72;98998.31;6094695;23;20026;-76
2023/07/03 06:20:12;;;;;;;1.88;0.30;;;;;;;15.67;70.75;98999.16;6093648;23;20029;-77
2023/07/03 06:22:40;;;;;;;1.85;0.35;;;;;;;15.67;70.58;98994.72;6094467;23;20057;-77
2023/07/03 06:25:07;;;;;;;0.90;0.25;;;;;;;15.65;70.49;98995.78;6093370;23;20022;-77
2023/07/03 06:27:34;;;;;;;2.95;0.40;;;;;;;15.69;70.53;99003.41;6094160;23;20033;-77
2023/07/03 06:30:01;;;;;;;5.03;0.40;;;;;;;15.70;70.46;98997.19;6094088;23;20034;-77
2023/07/03 06:32:30;;;;;;;0.65;0.20;;;;;;;15.70;69.71;99002.44;6094031;23;20019;-78
2023/07/03 06:34:57;;;;;;;7.88;0.40;;;;;;;15.70;69.88;99001.63;6094378;23;20025;-77
2023/07/03 06:37:24;;;;;;;2.95;0.30;;;;;;;15.71;69.71;98990.16;6094516;23;20030;-78
2023/07/03 06:39:51;;;;;;;2.25;0.40;;;;;;;15.71;70.05;98991.00;6095565;23;20022;-79
2023/07/03 06:42:18;;;;;;;3.20;0.35;;;;;;;15.74;69.97;99000.47;6096728;23;20018;-78
2023/07/03 06:44:45;;;;;;;5.45;0.30;;;;;;;15.68;70.08;98985.06;6096737;23;20023;-82
2023/07/03 06:47:12;;;;;;;3.60;0.30;;;;;;;15.76;69.50;98990.66;6094476;23;20028;-74
2023/07/03 06:49:40;;;;;;;2.47;0.30;;;;;;;15.77;69.84;98992.38;6092829;23;20018;-77
2023/07/03 06:52:07;;;;;;;5.07;0.30;;;;;;;15.79;69.93;99000.16;6094174;23;20022;-82
2023/07/03 06:54:34;;;;;;;3.97;0.30;;;;;;;15.81;70.02;99006.16;6095372;23;20466;-80
2023/07/03 06:57:01;;;;;;;1.40;0.40;;;;;;;15.84;69.76;98995.41;6095677;23;20093;-77
2023/07/03 06:59:28;;;;;;;2.92;0.20;;;;;;;15.85;69.36;99000.59;6095925;23;20058;-77
2023/07/03 07:01:55;;;;;;;4.53;0.40;;;;;;;15.89;69.36;99003.84;6095609;23;20024;-78
2023/07/03 07:04:22;;;;;;;4.30;0.20;;;;;;;15.90;69.46;98989.72;6094918;23;20463;-78
2023/07/03 07:06:50;;;;;;;2.25;0.30;;;;;;;15.92;69.42;98993.94;6096235;23;20025;-79
2023/07/03 07:09:17;;;;;;;3.75;0.20;;;;;;;15.97;69.28;98996.28;6095793;23;20032;-78
2023/07/03 07:11:46;;;;;;;3.92;0.68;;;;;;;15.99;69.19;98994.34;6094262;23;20026;-78
2023/07/03 07:14:14;;;;;;;1.20;0.25;;;;;;;16.01;69.54;98995.09;6096865;23;20022;-78
2023/07/03 07:16:42;;;;;;;2.55;0.30;;;;;;;16.05;69.06;99008.88;6093218;23;20030;-78
2023/07/03 07:19:11;;;;;;;0.75;0.20;;;;;;;16.05;68.72;99009.75;6096044;23;20478;-78
2023/07/03 07:21:41;;;;;;;3.95;0.40;;;;;;;16.09;68.64;99015.63;6096138;23;20023;-79
2023/07/03 07:24:17;;;;;;;2.97;0.40;;;;;;;16.10;68.21;99022.59;6096826;23;20026;-78
2023/07/03 07:26:44;;;;;;;1.23;0.25;;;;;;;16.09;68.24;99031.44;6095954;23;20101;-78
2023/07/03 07:29:11;;;;;;;1.95;0.30;;;;;;;16.06;68.50;99026.38;6094470;23;20101;-77
2023/07/03 07:31:38;;;;;;;0.60;0.20;;;;;;;16.07;68.68;99035.97;6093523;23;20024;-77
2023/07/03 07:34:05;;;;;;;0.60;0.20;;;;;;;16.07;68.97;99030.69;6094374;23;20322;-77
2023/07/03 07:36:33;;;;;;;1.70;0.30;;;;;;;16.08;69.07;99027.09;6090740;23;20024;-77
2023/07/03 07:39:02;;;;;;;0.40;0.20;;;;;;;16.10;69.25;99028.69;6093016;23;20022;-77
2023/07/03 07:41:30;;;;;;;4.10;0.30;;;;;;;16.09;69.51;99021.75;6094757;23;20019;-77
2023/07/03 07:43:58;;;;;;;2.45;0.77;;;;;;;16.11;69.38;99019.84;6093326;23;20343;-77
2023/07/03 07:46:28;;;;;;;1.90;0.43;;;;;;;16.12;69.69;99015.44;6094732;23;20058;-76
2023/07/03 07:48:56;;;;;;;2.75;0.20;;;;;;;16.11;68.94;99019.84;6093689;23;20025;-76
2023/07/03 07:51:24;;;;;;;1.15;0.30;;;;;;;16.14;69.17;99024.91;6094297;23;20349;-75
2023/07/03 07:53:51;;;;;;;3.17;0.30;;;;;;;16.14;69.32;99027.53;6094439;23;20102;-76
2023/07/03 07:56:18;;;;;;;1.55;0.30;;;;;;;16.16;69.48;99028.25;6093534;23;20029;-76
2023/07/03 07:58:46;;;;;;;1.90;0.47;;;;;;;16.18;69.47;99022.91;6094560;23;20026;-77
2023/07/03 08:01:15;;;;;;;3.20;0.30;;;;;;;16.19;69.25;99021.94;6095305;23;20344;-78
2023/07/03 08:03:43;;;;;;;2.72;0.30;;;;;;;16.21;69.24;99019.22;6093803;23;20027;-75
2023/07/03 08:06:11;;;;;;;4.35;0.45;;;;;;;16.24;69.17;99019.84;6092167;23;20022;-73
2023/07/03 08:08:39;;;;;;;3.53;0.20;;;;;;;16.23;69.01;99023.44;6093628;23;20073;-74
2023/07/03 08:11:08;;;;;;;1.20;0.38;;;;;;;16.26;69.07;99017.09;6092260;23;20081;-74
2023/07/03 08:13:36;;;;;;;1.90;0.20;;;;;;;16.28;68.69;99020.44;6093468;23;20029;-75
2023/07/03 08:16:05;;;;;;;2.33;0.38;;;;;;;16.30;68.37;99016.75;6092901;23;20022;-74
2023/07/03 08:18:32;;;;;;;2.33;0.82;;;;;;;16.30;67.78;99029.94;6093630;23;20052;-74
2023/07/03 08:20:59;;;;;;;3.80;0.30;;;;;;;16.30;67.39;99029.94;6091995;23;20082;-74
2023/07/03 08:23:26;;;;;;;1.85;0.30;;;;;;;16.29;66.70;99033.53;6093061;23;20018;-73
2023/07/03 08:25:55;;;;;;;6.30;0.40;;;;;;;16.26;66.84;99033.75;6094164;23;20348;-74
2023/07/03 08:28:23;;;;;;;6.30;0.20;;;;;;;16.26;66.82;99040.81;6091363;23;20023;-74
2023/07/03 08:30:50;;;;;;;1.42;0.30;;;;;;;16.24;66.67;99040.06;6092409;23;20024;-74
2023/07/03 08:33:18;;;;;;;3.45;0.45;;;;;;;16.24;66.13;99043.53;6093317;23;20018;-75
2023/07/03 08:35:46;;;;;;;3.53;0.40;;;;;;;16.23;65.76;99047.13;6091984;23;20033;-74
2023/07/03 08:38:13;;;;;;;1.92;0.40;;;;;;;16.19;65.50;99046.50;6093611;23;20348;-74
2023/07/03 08:40:40;;;;;;;5.97;0.40;;;;;;;16.19;65.87;99049.16;6092533;23;20055;-74
2023/07/03 08:43:13;;;;;;;2.03;0.88;;;;;;;16.18;65.92;99041.34;6092249;23;20613;-74
2023/07/03 08:45:42;;;;;;;1.88;0.40;;;;;;;16.15;65.25;99050.28;6093011;23;20027;-74
2023/07/03 08:48:14;;;;;;;1.73;0.30;;;;;;;16.14;65.38;99047.78;6091984;23;20019;-74
2023/07/03 08:50:46;;;;;;;2.72;0.45;;;;;;;16.13;65.14;99051.34;6092778;23;20029;-74
2023/07/03 08:53:17;;;;;;;6.18;0.40;;;;;;;16.09;65.06;99047.25;6092842;23;20033;-76
2023/07/03 08:55:51;;;;;;;2.28;0.43;;;;;;;16.09;64.78;99048.09;6093242;23;20029;-74
2023/07/03 08:58:18;;;;;;;3.08;0.40;;;;;;;16.11;64.94;99040.09;6092316;23;20086;-75
2023/07/03 09:00:54;;;;;;;0.98;0.40;;;;;;;16.10;65.51;99043.66;6091673;23;20472;-75
2023/07/03 09:03:29;;;;;;;2.55;0.40;;;;;;;16.13;65.94;99046.91;6093097;23;20026;-75
2023/07/03 09:06:06;;;;;;;;;;;;;;;16.16;65.57;99045.84;6090499;23;20022;-75
2023/07/03 09:08:40;;;;;;;4.20;0.50;;;;;;;16.16;65.63;99045.84;6092973;23;19917;-76
2023/07/03 09:11:08;;;;;;;1.30;0.40;;;;;;;16.18;65.27;99051.88;6092706;23;20022;-75
2023/07/03 09:13:40;;;;;;;1.65;0.30;;;;;;;16.21;65.55;99056.94;6092546;23;20424;-75
2023/07/03 09:16:14;;;;;;;5.50;0.40;;;;;;;16.26;65.35;99059.25;6093393;23;20058;-73
2023/07/03 09:18:46;;;;;;;5.63;0.30;;;;;;;16.31;65.36;99057.16;6092086;23;20576;-75
2023/07/03 09:21:14;;;;;;;7.25;1.67;;;;;;;16.37;65.45;99062.81;6089495;23;20026;-74
2023/07/03 09:23:48;;;;;;;7.63;0.40;;;;;;;16.40;64.99;99067.88;6092203;23;20048;-74
2023/07/03 09:26:20;;;;;;;0.93;0.30;;;;;;;16.47;64.68;99068.28;6090716;23;20023;-75
2023/07/03 09:28:49;;;;;;;1.90;0.30;;;;;;;16.52;64.94;99065.34;6088997;23;20459;-75
2023/07/03 09:31:16;;;;;;;3.40;0.30;;;;;;;16.58;64.67;99067.53;6087700;23;20128;-75
2023/07/03 09:33:43;;;;;;;3.88;0.50;;;;;;;16.61;64.36;99057.63;6088560;23;20109;-75
2023/07/03 09:36:25;;;;;;;9.10;0.30;;;;;;;16.67;64.55;99066.88;6089612;23;20396;-75
2023/07/03 09:38:52;;;;;;;1.70;0.30;;;;;;;16.74;63.45;99049.69;6088708;23;20023;-75
2023/07/03 09:41:26;;;;;;;3.63;0.30;;;;;;;16.81;64.58;99047.47;6088067;23;20054;-75
2023/07/03 09:43:53;;;;;;;2.38;0.30;;;;;;;16.89;63.92;99054.84;6089240;23;20029;-75
2023/07/03 09:46:21;;;;;;;1.98;0.30;;;;;;;16.95;63.63;99054.41;6090540;23;20156;-76
2023/07/03 09:48:48;;;;;;;2.65;0.30;;;;;;;17.02;63.42;99053.03;6090112;23;20413;-75
2023/07/03 09:51:28;;;;;;;5.80;0.57;;;;;;;17.09;62.72;99059.53;6090220;23;20025;-75
2023/07/03 09:53:58;;;;;;;4.60;0.30;;;;;;;17.13;62.66;99066.25;6089848;23;20468;-75
2023/07/03 09:56:29;;;;;;;0.52;0.20;;;;;;;17.18;63.11;99069.41;6088602;23;20018;-75
2023/07/03 09:59:01;;;;;;;7.35;0.50;;;;;;;17.23;63.04;99071.72;6091033;23;20019;-75
2023/07/03 10:01:30;;;;;;;1.48;0.30;;;;;;;17.25;63.69;99060.09;6090879;23;20381;-75
2023/07/03 10:04:03;;;;;;;2.85;0.32;;;;;;;17.28;63.58;99054.59;6092249;23;20053;-76
2023/07/03 10:06:31;;;;;;;3.63;0.57;;;;;;;17.39;62.63;99047.66;6091928;23;20029;-75
2023/07/03 10:09:01;;;;;;;2.33;0.28;;;;;;;17.45;62.99;99049.88;6091735;23;20036;-75
2023/07/03 10:11:37;;;;;;;4.68;0.30;;;;;;;17.49;62.45;99054.78;6090398;23;20031;-75
2023/07/03 10:14:08;;;;;;;7.07;0.38;;;;;;;17.54;61.66;99049.16;6092255;23;20023;-76
2023/07/03 10:16:35;;;;;;;0.82;0.22;;;;;;;17.57;61.75;99054.22;6091041;23;20668;-75
2023/07/03 10:19:03;;;;;;;3.20;0.68;;;;;;;17.60;61.00;99064.53;6091836;23;20019;-76
2023/07/03 10:21:33;;;;;;;7.45;0.52;;;;;;;17.61;60.75;99079.41;6088338;23;20464;-76
2023/07/03 10:24:02;;;;;;;3.70;0.20;;;;;;;17.54;61.42;99080.84;6092269;23;20025;-75
2023/07/03 10:26:34;;;;;;;2.47;0.22;;;;;;;17.61;61.34;99091.78;6092076;23;20054;-76
2023/07/03 10:29:08;;;;;;;2.25;0.20;;;;;;;17.63;61.68;99089.88;6092991;23;20026;-76
2023/07/03 10:31:40;;;;;;;0.60;0.20;;;;;;;17.62;61.42;99099.59;6092233;23;20034;-75
2023/07/03 10:34:13;;;;;;;0.10;0.10;;;;;;;17.61;61.92;99108.47;6091674;23;20022;-74
2023/07/03 10:36:45;;;;;;;5.05;0.20;;;;;;;17.59;62.01;99101.59;6091155;23;20413;-75
2023/07/03 10:39:17;;;;;;;5.72;0.45;;;;;;;17.54;62.08;99097.53;6092432;23;20022;-75
2023/07/03 10:41:49;;;;;;;0.65;0.20;;;;;;;17.51;62.18;99096.91;6091971;23;20022;-74
2023/07/03 10:44:19;;;;;;;2.63;0.20;;;;;;;17.46;62.24;99099.06;6093331;23;20070;-75
2023/07/03 10:46:52;;;;;;;3.00;0.20;;;;;;;17.44;62.64;99106.22;6093735;23;20034;-75
2023/07/03 10:49:27;;;;;;;2.53;0.20;;;;;;;17.42;62.80;99101.09;6092809;23;20022;-74
2023/07/03 10:52:05;;;;;;;0.60;0.20;;;;;;;17.40;62.87;99099.50;6092227;23;20798;-75
2023/07/03 10:54:37;;;;;;;0.65;0.20;;;;;;;17.38;63.72;99101.41;6092573;23;20029;-75
2023/07/03 10:57:07;;;;;;;2.47;0.20;;;;;;;17.36;64.14;99108.59;6093160;23;20062;-75
2023/07/03 10:59:39;;;;;;;1.67;0.20;;;;;;;17.34;64.29;99121.91;6092347;23;20359;-74
2023/07/03 11:02:18;;;;;;;1.50;0.10;;;;;;;17.33;64.57;99116.72;6093393;23;20347;-75
2023/07/03 11:04:54;;;;;;;2.95;0.30;;;;;;;17.31;64.54;99117.69;6092767;23;20026;-75
2023/07/03 11:07:32;;;;;;;0.88;0.22;;;;;;;17.28;64.65;99107.38;6093534;23;20045;-74
2023/07/03 11:10:08;;;;;;;1.92;0.30;;;;;;;17.27;64.50;99120.66;6091902;23;20027;-75
2023/07/03 11:12:41;;;;;;;1.55;0.20;;;;;;;17.27;65.03;99120.66;6093022;23;20057;-73
2023/07/03 11:15:19;;;;;;;0.40;0.10;;;;;;;17.25;65.16;99114.66;6092938;23;20141;-74
2023/07/03 11:17:56;;;;;;;0.28;0.10;;;;;;;17.23;65.05;99114.75;6093253;23;20026;-74
2023/07/03 11:20:30;;;;;;;2.90;0.20;;;;;;;17.24;65.56;99116.44;6092737;23;20046;-74
2023/07/03 11:23:08;;;;;;;5.80;0.23;;;;;;;17.27;65.81;99121.50;6093042;23;20033;-75
2023/07/03 11:25:40;;;;;;;1.92;0.20;;;;;;;17.29;65.51;99124.03;6092155;23;20023;-73
2023/07/03 11:28:15;;;;;;;2.25;0.30;;;;;;;17.31;66.14;99112.41;6092269;23;20341;-73
2023/07/03 11:30:43;;;;;;;0.85;0.20;;;;;;;17.34;66.25;99124.56;6093150;23;20018;-74
2023/07/03 11:33:13;;;;;;;1.27;0.13;;;;;;;17.39;66.01;99130.34;6092022;23;20030;-74
2023/07/03 11:35:51;;;;;;;2.85;0.20;;;;;;;17.45;65.18;99123.78;6092955;23;20030;-75
2023/07/03 11:38:20;;;;;;;3.35;0.20;;;;;;;17.49;64.82;99130.50;6091953;23;20029;-75
2023/07/03 11:41:02;;;;;;;3.03;0.10;;;;;;;17.52;65.33;99125.00;6093586;23;20030;-74
2023/07/03 11:43:35;;;;;;;2.17;0.30;;;;;;;17.57;65.43;99122.88;6091962;23;20026;-75